Time;durP1;ratioP1;P1;durP2;ratioP2;P2;SDS_P1;SDS_P2;PMS_P1;PMS_P2;Temp;Humidity;BMP_temperature;BMP_pressure;BME280_temperature;BME280_humidity;BME280_pressure;Samples;Min_cycle;Max_cycle;Signal;HPM_P1;HPM_P2
2022/04/09 00:00:16;;;;;;;0.10;0.10;;;;;;;0.84;100.00;91366.53;2093334;28;20016;-83
2022/04/09 00:01:17;;;;;;;0.20;0.20;;;;;;;0.92;100.00;91365.31;2096074;28;20085;-84
2022/04/09 00:02:18;;;;;;;0.20;0.13;;;;;;;0.86;100.00;91371.41;2094674;28;20496;-86
2022/04/09 00:03:19;;;;;;;0.10;0.10;;;;;;;0.80;100.00;91363.22;2106131;28;20106;-83
2022/04/09 00:04:20;;;;;;;0.10;0.10;;;;;;;0.81;100.00;91354.19;2096684;28;20024;-85
2022/04/09 00:05:21;;;;;;;0.10;0.10;;;;;;;0.67;100.00;91363.00;2097904;28;20031;-83
2022/04/09 00:06:23;;;;;;;0.70;0.10;;;;;;;0.61;100.00;91348.06;2100188;28;20107;-85
2022/04/09 00:07:24;;;;;;;0.10;0.10;;;;;;;0.61;100.00;91361.22;2096217;28;20023;-84
2022/04/09 00:08:25;;;;;;;0.10;0.10;;;;;;;0.76;100.00;91383.56;2089598;28;20501;-86
2022/04/09 00:09:26;;;;;;;0.10;0.10;;;;;;;0.68;100.00;91396.03;2097869;28;20024;-83
2022/04/09 00:10:27;;;;;;;0.10;0.10;;;;;;;0.67;100.00;91410.34;2095936;28;20036;-84
2022/04/09 00:11:28;;;;;;;0.98;0.40;;;;;;;0.57;100.00;91423.59;2093663;28;20103;-86
2022/04/09 00:12:29;;;;;;;0.10;0.10;;;;;;;0.62;100.00;91437.06;2105433;28;20047;-82
2022/04/09 00:13:30;;;;;;;0.10;0.10;;;;;;;0.53;100.00;91436.03;2087498;28;20017;-83
2022/04/09 00:14:31;;;;;;;0.10;0.10;;;;;;;0.55;100.00;91442.41;2097862;28;20154;-83
2022/04/09 00:15:32;;;;;;;0.10;0.10;;;;;;;0.52;100.00;91445.81;2099967;28;20411;-82
2022/04/09 00:16:34;;;;;;;0.10;0.10;;;;;;;0.53;100.00;91446.56;2094584;28;20025;-83
2022/04/09 00:17:36;;;;;;;0.10;0.10;;;;;;;0.46;100.00;91437.63;2097743;28;20098;-82
2022/04/09 00:18:37;;;;;;;0.10;0.10;;;;;;;0.46;100.00;91439.50;2089925;28;20029;-84
2022/04/09 00:19:38;;;;;;;0.10;0.10;;;;;;;0.40;100.00;91452.34;2093457;28;20103;-84
2022/04/09 00:20:44;;;;;;;0.10;0.10;;;;;;;0.46;100.00;91452.66;2085291;28;20421;-83
2022/04/09 00:21:48;;;;;;;0.10;0.10;;;;;;;0.43;100.00;91454.16;2090342;28;20714;-86
2022/04/09 00:22:49;;;;;;;0.10;0.10;;;;;;;0.34;100.00;91472.28;2082792;28;20606;-86
2022/04/09 00:23:50;;;;;;;0.10;0.10;;;;;;;0.34;100.00;91474.91;2096752;28;20074;-85
2022/04/09 00:24:51;;;;;;;0.10;0.10;;;;;;;0.41;100.00;91480.09;2091072;28;20048;-84
2022/04/09 00:25:52;;;;;;;0.10;0.10;;;;;;;0.36;100.00;91477.91;2096366;28;20029;-84
2022/04/09 00:26:53;;;;;;;0.10;0.10;;;;;;;0.30;100.00;91497.84;2094973;28;20024;-83
2022/04/09 00:27:54;;;;;;;0.10;0.10;;;;;;;0.24;100.00;91502.06;2093917;28;20025;-84
2022/04/09 00:28:55;;;;;;;0.10;0.10;;;;;;;0.19;100.00;91508.47;2097594;28;20024;-84
2022/04/09 00:29:56;;;;;;;0.10;0.10;;;;;;;0.15;100.00;91514.91;2091318;28;20100;-84
2022/04/09 00:30:56;;;;;;;0.20;0.20;;;;;;;0.09;100.00;91519.06;2097675;28;20496;-83
2022/04/09 00:31:57;;;;;;;0.10;0.10;;;;;;;0.18;100.00;91517.50;2095665;28;20021;-83
2022/04/09 00:32:59;;;;;;;0.10;0.10;;;;;;;0.03;100.00;91515.38;2097654;28;20024;-84
2022/04/09 00:34:00;;;;;;;0.20;0.20;;;;;;;0.09;100.00;91514.59;2095600;28;20435;-85
2022/04/09 00:35:02;;;;;;;0.15;0.15;;;;;;;0.18;100.00;91524.63;2095646;28;20040;-84
2022/04/09 00:36:03;;;;;;;0.20;0.20;;;;;;;0.10;100.00;91531.09;2103565;28;20026;-88
2022/04/09 00:37:05;;;;;;;0.10;0.10;;;;;;;-0.17;100.00;91525.69;2085499;28;20467;-86
2022/04/09 00:38:06;;;;;;;0.10;0.10;;;;;;;-0.29;100.00;91540.00;2096104;28;20024;-84
2022/04/09 00:39:07;;;;;;;0.20;0.20;;;;;;;-0.16;100.00;91541.03;2095723;28;20017;-84
2022/04/09 00:40:08;;;;;;;0.20;0.20;;;;;;;-0.18;100.00;91542.56;2089442;28;20013;-86
2022/04/09 00:41:25;;;;;;;0.17;0.17;;;;;;;-0.17;100.00;91542.19;2101418;28;20132;-84
2022/04/09 00:42:25;;;;;;;0.20;0.20;;;;;;;-0.25;100.00;91545.97;2106505;28;20020;-85
2022/04/09 00:43:26;;;;;;;0.20;0.20;;;;;;;-0.38;100.00;91558.06;2106209;28;20019;-84
2022/04/09 00:44:27;;;;;;;0.20;0.20;;;;;;;-0.44;100.00;91562.22;2093845;28;20080;-84
2022/04/09 00:45:28;;;;;;;0.10;0.10;;;;;;;-0.37;100.00;91575.31;2089466;28;20397;-86
2022/04/09 00:46:29;;;;;;;0.10;0.10;;;;;;;-0.46;100.00;91575.75;2086752;28;20021;-83
2022/04/09 00:47:30;;;;;;;0.20;0.20;;;;;;;-0.48;100.00;91590.38;2094113;28;20013;-83
2022/04/09 00:48:32;;;;;;;0.20;0.20;;;;;;;-0.34;100.00;91592.94;2090900;28;20739;-83
2022/04/09 00:49:36;;;;;;;0.20;0.20;;;;;;;-0.49;100.00;91602.75;2093794;28;20024;-84
2022/04/09 00:50:37;;;;;;;0.30;0.30;;;;;;;-0.45;100.00;91613.22;2100209;28;20107;-83
2022/04/09 00:51:42;;;;;;;0.20;0.20;;;;;;;-0.29;100.00;91614.25;2110120;28;20016;-83
2022/04/09 00:52:47;;;;;;;0.10;0.10;;;;;;;-0.22;100.00;91628.47;2110094;27;20073;-87
2022/04/09 00:53:50;;;;;;;0.30;0.30;;;;;;;-0.29;100.00;91637.88;2101008;28;20028;-83
2022/04/09 00:54:54;;;;;;;0.15;0.15;;;;;;;-0.25;100.00;91640.50;2095360;28;20040;-84
2022/04/09 00:56:13;;;;;;;0.20;0.20;;;;;;;-0.25;100.00;91651.00;2094574;28;20051;-85
2022/04/09 00:57:15;;;;;;;0.20;0.20;;;;;;;-0.22;100.00;91660.75;2096871;28;20104;-85
2022/04/09 00:58:17;;;;;;;0.20;0.20;;;;;;;-0.26;100.00;91667.88;2097110;28;20495;-85
2022/04/09 00:59:23;;;;;;;0.20;0.20;;;;;;;-0.41;100.00;91675.06;2103209;28;20447;-85
2022/04/09 01:00:24;;;;;;;0.20;0.20;;;;;;;-0.39;100.00;91675.44;2103713;28;20062;-86
2022/04/09 01:01:29;;;;;;;0.10;0.10;;;;;;;-0.42;100.00;91678.09;2086573;28;20409;-86
2022/04/09 01:02:31;;;;;;;0.20;0.20;;;;;;;-0.40;100.00;91678.44;2094591;28;20021;-86
2022/04/09 01:03:36;;;;;;;0.10;0.10;;;;;;;-0.22;100.00;91678.34;2089580;28;20742;-85
2022/04/09 01:04:42;;;;;;;0.17;0.17;;;;;;;-0.29;100.00;91694.91;2090418;28;20024;-83
2022/04/09 01:05:44;;;;;;;0.20;0.20;;;;;;;-0.33;100.00;91694.16;2098275;28;20016;-83
2022/04/09 01:06:46;;;;;;;0.20;0.20;;;;;;;-0.28;100.00;91699.75;2103493;28;20524;-84
2022/04/09 01:07:47;;;;;;;0.20;0.20;;;;;;;-0.43;100.00;91700.97;2099897;28;20024;-85
2022/04/09 01:08:48;;;;;;;0.20;0.20;;;;;;;-0.49;100.00;91709.59;2103802;28;20069;-83
2022/04/09 01:09:49;;;;;;;0.30;0.30;;;;;;;-0.33;100.00;91708.03;2094421;28;20020;-83
2022/04/09 01:10:50;;;;;;;0.20;0.20;;;;;;;-0.30;100.00;91712.53;2086435;28;20510;-85
2022/04/09 01:11:52;;;;;;;0.40;0.30;;;;;;;-0.31;100.00;91712.91;2095691;28;20024;-84
2022/04/09 01:12:53;;;;;;;0.20;0.20;;;;;;;-0.37;100.00;91723.03;2099725;28;20119;-85
2022/04/09 01:13:54;;;;;;;0.20;0.20;;;;;;;-0.34;100.00;91714.41;2097487;28;20416;-85
2022/04/09 01:14:55;;;;;;;0.20;0.20;;;;;;;-0.32;100.00;91725.28;2095517;28;20040;-84
2022/04/09 01:15:56;;;;;;;0.20;0.20;;;;;;;-0.32;100.00;91719.28;2085107;28;20028;-84
2022/04/09 01:16:56;;;;;;;0.20;0.20;;;;;;;-0.39;100.00;91730.56;2085375;28;20024;-85
2022/04/09 01:18:00;;;;;;;0.20;0.20;;;;;;;-0.31;100.00;91742.53;2095477;28;20023;-81
2022/04/09 01:19:02;;;;;;;0.20;0.20;;;;;;;-0.35;100.00;91759.41;2093767;28;20020;-86
2022/04/09 01:20:17;;;;;;;0.20;0.20;;;;;;;-0.48;100.00;91751.22;2097535;28;20108;-85
2022/04/09 01:21:18;;;;;;;0.20;0.20;;;;;;;-0.56;100.00;91745.25;2099890;28;20085;-86
2022/04/09 01:22:29;;;;;;;0.40;0.10;;;;;;;-0.56;100.00;91753.13;2096435;28;20385;-85
2022/04/09 01:23:31;;;;;;;0.20;0.20;;;;;;;-0.53;100.00;91756.84;2090419;28;20017;-84
2022/04/09 01:24:32;;;;;;;0.20;0.20;;;;;;;-0.51;100.00;91757.97;2084937;28;20022;-88
2022/04/09 01:25:33;;;;;;;0.20;0.20;;;;;;;-0.61;100.00;91766.63;2094606;28;20382;-82
2022/04/09 01:26:35;;;;;;;0.17;0.17;;;;;;;-0.52;100.00;91772.22;2091553;28;20016;-85
2022/04/09 01:27:36;;;;;;;0.30;0.30;;;;;;;-0.48;100.00;91774.06;2095574;28;20424;-87
2022/04/09 01:28:37;;;;;;;0.20;0.20;;;;;;;-0.52;100.00;91774.09;2095685;28;20639;-85
2022/04/09 01:29:40;;;;;;;0.20;0.20;;;;;;;-0.38;100.00;91770.69;2093604;28;20032;-86
2022/04/09 01:30:42;;;;;;;0.20;0.20;;;;;;;-0.38;100.00;91773.31;2095672;28;20025;-85
2022/04/09 01:31:43;;;;;;;0.20;0.20;;;;;;;-0.41;100.00;91779.31;2089178;28;20016;-84
2022/04/09 01:32:44;;;;;;;0.20;0.20;;;;;;;-0.48;100.00;91780.09;2092901;28;20482;-86
2022/04/09 01:33:45;;;;;;;0.20;0.20;;;;;;;-0.43;100.00;91784.94;2093857;28;20074;-86
2022/04/09 01:34:46;;;;;;;2.65;0.30;;;;;;;-0.37;100.00;91782.69;2099528;28;20024;-84
2022/04/09 01:35:48;;;;;;;0.20;0.20;;;;;;;-0.46;100.00;91784.94;2084803;28;20064;-84
2022/04/09 01:36:49;;;;;;;0.20;0.20;;;;;;;-0.55;100.00;91793.97;2096690;28;20027;-84
2022/04/09 01:37:50;;;;;;;0.22;0.22;;;;;;;-0.52;100.00;91793.22;2094425;28;20028;-87
2022/04/09 01:38:51;;;;;;;0.20;0.20;;;;;;;-0.53;100.00;91801.44;2093078;28;20020;-84
2022/04/09 01:39:52;;;;;;;0.20;0.20;;;;;;;-0.41;100.00;91803.69;2097562;28;20115;-84
2022/04/09 01:40:54;;;;;;;0.20;0.20;;;;;;;-0.33;100.00;91817.53;2105696;28;20019;-85
2022/04/09 01:41:55;;;;;;;0.20;0.20;;;;;;;-0.50;100.00;91821.69;2103885;28;20040;-85
2022/04/09 01:42:56;;;;;;;0.20;0.20;;;;;;;-0.49;100.00;91812.69;2099529;28;20017;-85
2022/04/09 01:44:00;;;;;;;0.20;0.20;;;;;;;-0.49;100.00;91820.56;2095698;28;20488;-88
2022/04/09 01:45:01;;;;;;;2.85;0.20;;;;;;;-0.57;100.00;91811.97;2088068;28;20052;-83
2022/04/09 01:46:02;;;;;;;2.10;0.25;;;;;;;-0.48;100.00;91810.81;2086828;28;20044;-85
2022/04/09 01:47:04;;;;;;;0.20;0.20;;;;;;;-0.51;100.00;91820.94;2094155;28;20020;-84
2022/04/09 01:48:05;;;;;;;0.20;0.20;;;;;;;-0.48;100.00;91816.84;2096898;28;20724;-85
2022/04/09 01:49:07;;;;;;;0.20;0.20;;;;;;;-0.45;100.00;91823.19;2085176;28;20027;-85
2022/04/09 01:50:09;;;;;;;0.20;0.20;;;;;;;-0.59;100.00;91829.97;2095520;28;20573;-86
2022/04/09 01:51:10;;;;;;;0.20;0.20;;;;;;;-0.48;100.00;91835.22;2093525;28;20050;-84
2022/04/09 01:52:11;;;;;;;0.20;0.20;;;;;;;-0.49;100.00;91836.31;2099525;28;20020;-83
2022/04/09 01:53:12;;;;;;;0.20;0.20;;;;;;;-0.55;100.00;91843.06;2097114;28;20024;-89
2022/04/09 01:54:13;;;;;;;0.20;0.20;;;;;;;-0.47;100.00;91857.69;2095005;28;20021;-85
2022/04/09 01:55:14;;;;;;;0.10;0.10;;;;;;;-0.51;100.00;91851.69;2093346;28;20020;-84
2022/04/09 01:56:15;;;;;;;0.32;0.17;;;;;;;-0.48;100.00;91860.69;2101110;28;20024;-85
2022/04/09 01:57:16;;;;;;;0.20;0.20;;;;;;;-0.39;100.00;91866.31;2093942;28;20082;-85
2022/04/09 01:58:17;;;;;;;0.20;0.20;;;;;;;-0.52;100.00;91871.94;2089050;28;20040;-85
2022/04/09 01:59:18;;;;;;;0.20;0.20;;;;;;;-0.53;100.00;91872.31;2091370;28;20147;-86
2022/04/09 02:00:20;;;;;;;2.65;0.22;;;;;;;-0.54;100.00;91876.81;2107551;28;20024;-85
2022/04/09 02:01:21;;;;;;;0.20;0.20;;;;;;;-0.45;100.00;91880.94;2103325;28;20069;-83
2022/04/09 02:02:22;;;;;;;0.20;0.20;;;;;;;-0.45;100.00;91886.94;2097349;28;20017;-84
2022/04/09 02:03:32;;;;;;;1.55;0.28;;;;;;;-0.60;100.00;91898.56;2094787;28;20017;-82
2022/04/09 02:04:33;;;;;;;0.20;0.20;;;;;;;-0.63;100.00;91897.44;2090390;28;20456;-84
2022/04/09 02:05:35;;;;;;;0.20;0.20;;;;;;;-0.48;100.00;91900.81;2105479;28;20024;-83
2022/04/09 02:06:35;;;;;;;0.20;0.20;;;;;;;-0.47;100.00;91909.44;2092969;28;20021;-86
2022/04/09 02:07:41;;;;;;;0.30;0.30;;;;;;;-0.53;100.00;91907.19;2094445;28;20052;-82
2022/04/09 02:08:41;;;;;;;0.77;0.40;;;;;;;-0.51;100.00;91912.81;2104009;28;20030;-85
2022/04/09 02:09:43;;;;;;;0.20;0.20;;;;;;;-0.48;100.00;91919.19;2095276;28;20386;-81
2022/04/09 02:12:34;;;;;;;0.30;0.30;;;;;;;-0.76;100.00;91919.91;2131374;27;20175;-82
2022/04/09 02:13:35;;;;;;;0.30;0.30;;;;;;;-0.74;100.00;91912.44;2117012;28;20031;-85
2022/04/09 02:14:36;;;;;;;0.20;0.20;;;;;;;-0.70;100.00;91918.44;2103789;28;20024;-85
2022/04/09 02:15:37;;;;;;;0.30;0.30;;;;;;;-0.68;100.00;91916.19;2113229;27;20437;-84
2022/04/09 02:16:39;;;;;;;0.30;0.30;;;;;;;-0.63;100.00;91928.16;2119186;27;20126;-84
2022/04/09 02:17:42;;;;;;;0.30;0.30;;;;;;;-0.73;100.00;91924.41;2108989;28;20016;-85
2022/04/09 02:18:43;;;;;;;0.30;0.30;;;;;;;-0.75;100.00;91929.28;2104911;28;20020;-83
2022/04/09 02:19:44;;;;;;;0.30;0.30;;;;;;;-0.69;100.00;91930.44;2104540;28;20020;-84
2022/04/09 02:20:45;;;;;;;0.20;0.20;;;;;;;-0.65;100.00;91925.19;2113012;27;20028;-84
2022/04/09 02:21:46;;;;;;;0.35;0.35;;;;;;;-0.71;100.00;91935.28;2121190;27;20084;-84
2022/04/09 02:22:47;;;;;;;0.30;0.30;;;;;;;-0.70;100.00;91936.81;2112908;28;20027;-82
2022/04/09 02:23:50;;;;;;;0.40;0.40;;;;;;;-0.53;100.00;91937.91;2112447;28;20064;-83
2022/04/09 02:24:51;;;;;;;0.40;0.40;;;;;;;-0.64;100.00;91948.41;2109518;28;20031;-83
2022/04/09 02:25:52;;;;;;;0.30;0.30;;;;;;;-0.66;100.00;91947.28;2105519;27;20124;-87
2022/04/09 02:26:53;;;;;;;0.30;0.30;;;;;;;-0.54;100.00;91946.91;2104969;28;20036;-83
2022/04/09 02:27:54;;;;;;;0.30;0.30;;;;;;;-0.67;100.00;91945.78;2104420;28;20370;-83
2022/04/09 02:28:56;;;;;;;0.40;0.40;;;;;;;-0.60;100.00;91951.78;2110658;28;20020;-85
2022/04/09 02:29:57;;;;;;;0.30;0.30;;;;;;;-0.36;100.00;91957.41;2119131;28;20058;-85
2022/04/09 02:30:58;;;;;;;0.40;0.40;;;;;;;-0.62;100.00;91956.66;2110736;28;20460;-86
2022/04/09 02:32:01;;;;;;;3.40;0.40;;;;;;;-0.66;100.00;91965.66;2112951;27;20027;-83
2022/04/09 02:33:02;;;;;;;0.30;0.30;;;;;;;-0.73;100.00;91963.78;2114889;28;20456;-85
2022/04/09 02:34:04;;;;;;;0.50;0.50;;;;;;;-0.60;100.00;91967.53;2100481;28;20025;-84
2022/04/09 02:35:06;;;;;;;0.40;0.40;;;;;;;-0.62;100.00;91969.03;2106608;28;20020;-84
2022/04/09 02:36:12;;;;;;;0.35;0.35;;;;;;;-0.46;100.00;91963.44;2103961;28;20036;-85
2022/04/09 02:37:12;;;;;;;0.35;0.35;;;;;;;-0.66;100.00;91974.28;2112291;27;20027;-84
2022/04/09 02:38:13;;;;;;;0.30;0.30;;;;;;;-0.58;100.00;91978.41;2119290;28;20028;-86
2022/04/09 02:39:15;;;;;;;0.43;0.40;;;;;;;-0.53;100.00;91977.28;2121169;28;20025;-87
2022/04/09 02:40:15;;;;;;;0.40;0.40;;;;;;;-0.52;100.00;91978.81;2119676;28;20542;-85
2022/04/09 02:41:16;;;;;;;1.65;0.40;;;;;;;-0.60;100.00;91988.53;2102040;28;20029;-84
2022/04/09 02:42:18;;;;;;;0.38;0.38;;;;;;;-0.35;100.00;91993.03;2112760;28;20984;-85
2022/04/09 02:43:19;;;;;;;0.30;0.30;;;;;;;-0.48;100.00;91989.28;2113848;28;20035;-84
2022/04/09 02:44:26;;;;;;;0.40;0.40;;;;;;;-0.61;100.00;91994.91;2103161;28;20612;-85
2022/04/09 02:45:27;;;;;;;0.50;0.50;;;;;;;-0.47;100.00;91996.78;2117725;28;20015;-86
2022/04/09 02:46:28;;;;;;;1.75;0.40;;;;;;;-0.61;100.00;92002.03;2110341;28;20082;-88
2022/04/09 02:47:29;;;;;;;0.57;0.40;;;;;;;-0.68;100.00;92007.25;2108703;28;20042;-83
2022/04/09 02:48:30;;;;;;;0.65;0.35;;;;;;;-0.61;100.00;91994.91;2109932;28;20012;-83
2022/04/09 02:49:31;;;;;;;0.40;0.40;;;;;;;-0.51;100.00;92004.66;2112567;28;20035;-85
2022/04/09 02:50:32;;;;;;;0.40;0.40;;;;;;;-0.56;100.00;92010.28;2116242;27;20024;-83
2022/04/09 02:51:36;;;;;;;0.47;0.47;;;;;;;-0.52;100.00;92015.53;2107280;28;20523;-83
2022/04/09 02:52:39;;;;;;;0.30;0.30;;;;;;;-0.49;100.00;92017.41;2110509;27;20086;-85
2022/04/09 02:53:40;;;;;;;0.40;0.40;;;;;;;-0.51;100.00;92017.03;2113283;28;20016;-83
2022/04/09 02:54:41;;;;;;;0.50;0.50;;;;;;;-0.48;100.00;92023.41;2112257;28;20027;-83
2022/04/09 02:55:42;;;;;;;1.00;0.50;;;;;;;-0.50;100.00;92018.53;2120814;28;20376;-85
2022/04/09 02:56:44;;;;;;;0.50;0.50;;;;;;;-0.48;100.00;92023.41;2112657;28;20122;-83
2022/04/09 02:57:45;;;;;;;0.40;0.40;;;;;;;-0.30;100.00;92035.44;2101991;28;20016;-81
2022/04/09 02:58:46;;;;;;;0.50;0.50;;;;;;;-0.34;100.00;92034.69;2104108;28;20028;-82
2022/04/09 02:59:47;;;;;;;0.60;0.60;;;;;;;-0.54;100.00;92039.53;2119434;28;20030;-84
2022/04/09 03:00:48;;;;;;;0.52;0.52;;;;;;;-0.55;100.00;92040.66;2112486;27;20499;-81
2022/04/09 03:01:49;;;;;;;0.60;0.60;;;;;;;-0.45;100.00;92047.03;2112375;28;20118;-83
2022/04/09 03:02:50;;;;;;;1.10;0.57;;;;;;;-0.49;100.00;92050.78;2103995;28;20105;-83
2022/04/09 03:03:51;;;;;;;0.68;0.68;;;;;;;-0.53;100.00;92051.53;2104034;28;20039;-84
2022/04/09 03:04:55;;;;;;;0.80;0.77;;;;;;;-0.53;100.00;92058.63;2109591;28;20017;-84
2022/04/09 03:05:56;;;;;;;0.80;0.80;;;;;;;-0.52;100.00;92062.78;2096400;28;20109;-82
2022/04/09 03:06:57;;;;;;;1.05;1.05;;;;;;;-0.47;100.00;92059.78;2104180;28;20028;-82
2022/04/09 03:07:58;;;;;;;1.60;1.00;;;;;;;-0.39;100.00;92063.19;2102019;28;20024;-84
2022/04/09 03:08:59;;;;;;;1.30;1.20;;;;;;;-0.45;100.00;92060.16;2112517;28;20015;-82
2022/04/09 03:10:00;;;;;;;3.90;1.58;;;;;;;-0.47;100.00;92062.41;2095559;28;20017;-84
2022/04/09 03:11:01;;;;;;;1.38;1.20;;;;;;;-0.40;100.00;92064.28;2106910;28;20486;-83
2022/04/09 03:12:04;;;;;;;2.85;1.17;;;;;;;-0.39;100.00;92060.56;2109460;28;20105;-86
2022/04/09 03:13:05;;;;;;;1.63;1.30;;;;;;;-0.34;100.00;92057.56;2104512;28;20522;-84
2022/04/09 03:14:06;;;;;;;1.40;1.30;;;;;;;-0.46;100.00;92063.16;2108146;28;20388;-85
2022/04/09 03:15:08;;;;;;;1.90;1.55;;;;;;;-0.46;100.00;92063.16;2104098;28;20020;-86
2022/04/09 03:16:09;;;;;;;1.50;1.40;;;;;;;-0.51;100.00;92067.66;2103856;28;20024;-85
2022/04/09 03:17:10;;;;;;;1.45;1.35;;;;;;;-0.60;100.00;92069.88;2111995;28;20385;-83
2022/04/09 03:18:11;;;;;;;1.65;1.30;;;;;;;-0.56;100.00;92075.88;2110339;28;20047;-84
2022/04/09 03:19:12;;;;;;;2.85;1.25;;;;;;;-0.48;100.00;92081.13;2102026;28;20021;-85
2022/04/09 03:20:13;;;;;;;1.40;1.30;;;;;;;-0.57;100.00;92086.75;2102061;28;20720;-83
2022/04/09 03:21:14;;;;;;;1.38;1.20;;;;;;;-0.59;100.00;92086.38;2099853;28;20031;-85
2022/04/09 03:22:15;;;;;;;1.67;1.58;;;;;;;-0.76;100.00;92091.19;2101513;28;20040;-85
2022/04/09 03:23:16;;;;;;;1.40;1.30;;;;;;;-0.66;100.00;92092.38;2108609;28;20028;-86
2022/04/09 03:24:18;;;;;;;1.10;1.00;;;;;;;-0.62;100.00;92087.09;2104752;28;20024;-86
2022/04/09 03:25:26;;;;;;;1.40;1.30;;;;;;;-0.57;100.00;92092.00;2090321;28;20032;-82
2022/04/09 03:26:27;;;;;;;2.03;1.40;;;;;;;-0.69;100.00;92098.34;2087875;28;20066;-86
2022/04/09 03:27:29;;;;;;;1.85;1.30;;;;;;;-0.79;100.00;92094.56;2090043;28;20058;-84
2022/04/09 03:28:30;;;;;;;1.40;1.30;;;;;;;-0.91;100.00;92107.25;2097153;28;20023;-83
2022/04/09 03:29:31;;;;;;;1.20;1.10;;;;;;;-0.84;100.00;92107.25;2100438;28;20035;-83
2022/04/09 03:30:32;;;;;;;1.50;1.20;;;;;;;-0.77;100.00;92102.81;2090153;28;20029;-84
2022/04/09 03:31:35;;;;;;;0.90;0.90;;;;;;;-0.71;100.00;92105.81;2088915;28;20739;-84
2022/04/09 03:32:36;;;;;;;1.52;1.10;;;;;;;-0.65;100.00;92108.84;2106034;28;20388;-84
2022/04/09 03:33:37;;;;;;;0.82;0.82;;;;;;;-0.66;100.00;92107.34;2098242;28;20423;-83
2022/04/09 03:34:38;;;;;;;0.60;0.60;;;;;;;-0.66;100.00;92118.59;2098386;28;20020;-82
2022/04/09 03:35:40;;;;;;;0.50;0.50;;;;;;;-0.67;100.00;92118.94;2104673;28;20490;-81
2022/04/09 03:36:42;;;;;;;0.47;0.47;;;;;;;-0.73;100.00;92126.44;2095675;28;20024;-84
2022/04/09 03:37:45;;;;;;;0.50;0.50;;;;;;;-0.86;100.00;92117.38;2096498;28;20599;-84
2022/04/09 03:38:46;;;;;;;0.57;0.57;;;;;;;-0.86;100.00;92123.38;2098158;28;20042;-83
2022/04/09 03:39:47;;;;;;;0.40;0.40;;;;;;;-0.73;100.00;92123.81;2088533;28;20106;-86
2022/04/09 03:40:54;;;;;;;0.50;0.50;;;;;;;-0.83;100.00;92127.16;2089215;28;20107;-85
2022/04/09 03:42:01;;;;;;;0.47;0.40;;;;;;;-0.80;100.00;92132.38;2100084;28;20077;-86
2022/04/09 03:43:09;;;;;;;0.57;0.50;;;;;;;-0.76;100.00;92133.16;2092734;28;20029;-83
2022/04/09 03:44:10;;;;;;;1.85;1.63;;;;;;;-0.82;100.00;92137.25;2095483;28;20020;-82
2022/04/09 03:45:11;;;;;;;0.45;0.40;;;;;;;-0.75;100.00;92141.78;2091924;28;20021;-83
2022/04/09 03:46:13;;;;;;;0.30;0.30;;;;;;;-0.83;100.00;92143.63;2096091;28;20020;-83
2022/04/09 03:47:14;;;;;;;0.40;0.40;;;;;;;-0.83;100.00;92137.66;2096090;28;20017;-82
2022/04/09 03:48:15;;;;;;;0.30;0.30;;;;;;;-0.61;100.00;92139.25;2095895;28;20024;-82
2022/04/09 03:49:16;;;;;;;0.20;0.20;;;;;;;-0.83;100.00;92140.25;2096126;28;20021;-85
2022/04/09 03:50:17;;;;;;;0.30;0.30;;;;;;;-0.76;100.00;92142.91;2088485;28;20588;-82
2022/04/09 03:51:18;;;;;;;0.30;0.30;;;;;;;-0.91;100.00;92149.97;2096545;28;20032;-85
2022/04/09 03:52:19;;;;;;;0.22;0.22;;;;;;;-0.76;100.00;92156.78;2104924;28;20039;-84
2022/04/09 03:53:20;;;;;;;0.20;0.20;;;;;;;-0.80;100.00;92152.63;2096732;28;20022;-85
2022/04/09 03:54:21;;;;;;;0.20;0.20;;;;;;;-0.61;100.00;92159.47;2094661;28;20033;-83
2022/04/09 03:55:22;;;;;;;0.20;0.20;;;;;;;-0.78;100.00;92150.41;2095758;28;20141;-85
2022/04/09 03:56:23;;;;;;;0.30;0.30;;;;;;;-0.81;100.00;92164.25;2089447;28;20491;-84
2022/04/09 03:57:24;;;;;;;0.30;0.30;;;;;;;-0.90;100.00;92167.19;2095750;28;20025;-84
2022/04/09 03:58:26;;;;;;;0.20;0.20;;;;;;;-0.76;100.00;92174.38;2104243;28;20388;-84
2022/04/09 03:59:27;;;;;;;0.30;0.30;;;;;;;-0.83;100.00;92169.13;2097776;28;20023;-83
2022/04/09 04:00:28;;;;;;;0.20;0.20;;;;;;;-0.72;100.00;92163.91;2093247;28;20522;-83
2022/04/09 04:01:29;;;;;;;0.40;0.40;;;;;;;-0.76;100.00;92158.66;2089511;28;20056;-84
2022/04/09 04:02:30;;;;;;;0.40;0.40;;;;;;;-0.80;100.00;92176.25;2097933;28;20017;-81
2022/04/09 04:03:32;;;;;;;0.50;0.50;;;;;;;-0.78;100.00;92168.78;2097828;28;20415;-85
2022/04/09 04:04:34;;;;;;;0.50;0.50;;;;;;;-0.85;100.00;92169.47;2095154;28;20027;-83
2022/04/09 04:05:36;;;;;;;0.80;0.80;;;;;;;-0.74;100.00;92179.28;2095898;28;20025;-83
2022/04/09 04:06:48;;;;;;;0.63;0.63;;;;;;;-0.79;100.00;92172.50;2089999;28;20102;-85
2022/04/09 04:07:49;;;;;;;2.28;1.00;;;;;;;-0.95;100.00;92182.53;2087097;28;20043;-85
2022/04/09 04:08:51;;;;;;;1.20;1.02;;;;;;;-0.89;100.00;92179.19;2098071;28;20018;-84
2022/04/09 04:09:52;;;;;;;1.00;1.00;;;;;;;-0.93;100.00;92177.66;2106391;28;20024;-82
2022/04/09 04:10:53;;;;;;;1.40;1.30;;;;;;;-0.85;100.00;92182.59;2106218;28;20138;-83
2022/04/09 04:11:54;;;;;;;1.75;1.65;;;;;;;-0.91;100.00;92178.06;2105270;28;20569;-85
2022/04/09 04:12:56;;;;;;;1.90;1.80;;;;;;;-1.06;100.00;92185.06;2099316;28;20067;-82
2022/04/09 04:13:57;;;;;;;2.90;1.88;;;;;;;-0.91;100.00;92185.94;2108367;28;20027;-83
2022/04/09 04:14:58;;;;;;;2.53;2.33;;;;;;;-0.90;100.00;92182.94;2106171;28;20090;-83
2022/04/09 04:16:01;;;;;;;2.47;2.28;;;;;;;-0.97;100.00;92187.38;2104176;28;20077;-83
2022/04/09 04:17:02;;;;;;;5.50;2.90;;;;;;;-0.94;100.00;92192.66;2093521;28;20089;-84
2022/04/09 04:18:03;;;;;;;3.58;3.22;;;;;;;-1.02;100.00;92197.09;2096506;28;20028;-84
2022/04/09 04:19:04;;;;;;;4.55;2.90;;;;;;;-1.04;100.00;92195.97;2089823;28;20060;-84
2022/04/09 04:20:07;;;;;;;3.97;3.10;;;;;;;-0.95;100.00;92195.66;2086558;28;20017;-83
2022/04/09 04:21:08;;;;;;;2.65;2.45;;;;;;;-1.03;100.00;92198.22;2105766;28;20027;-84
2022/04/09 04:22:10;;;;;;;3.10;2.80;;;;;;;-0.98;100.00;92207.63;2106584;28;20102;-84
2022/04/09 04:23:11;;;;;;;3.15;2.78;;;;;;;-0.96;100.00;92202.78;2097541;28;20035;-83
2022/04/09 04:24:12;;;;;;;2.88;2.63;;;;;;;-1.00;100.00;92202.00;2088934;28;20063;-83
2022/04/09 04:25:13;;;;;;;3.88;2.35;;;;;;;-0.95;100.00;92214.00;2102105;28;20384;-85
2022/04/09 04:26:14;;;;;;;3.13;2.60;;;;;;;-0.83;100.00;92200.59;2110481;28;20020;-83
2022/04/09 04:27:17;;;;;;;2.83;2.30;;;;;;;-0.89;100.00;92210.66;2097446;28;20023;-84
2022/04/09 04:28:18;;;;;;;2.17;1.98;;;;;;;-0.95;100.00;92212.13;2098225;28;20032;-82
2022/04/09 04:29:20;;;;;;;2.05;1.85;;;;;;;-1.02;100.00;92215.44;2093786;28;20382;-85
2022/04/09 04:30:24;;;;;;;2.20;2.00;;;;;;;-1.03;100.00;92221.81;2097091;28;20024;-86
2022/04/09 04:31:25;;;;;;;2.00;1.80;;;;;;;-0.95;100.00;92217.38;2096839;28;20111;-82
2022/04/09 04:32:31;;;;;;;2.92;2.33;;;;;;;-0.97;100.00;92218.84;2103096;28;20016;-84
2022/04/09 04:33:32;;;;;;;1.80;1.70;;;;;;;-0.89;100.00;92221.16;2097049;28;20051;-84
2022/04/09 04:34:33;;;;;;;2.92;1.73;;;;;;;-0.89;100.00;92218.53;2103109;28;20498;-83
2022/04/09 04:35:33;;;;;;;2.65;2.00;;;;;;;-0.89;100.00;92220.41;2107251;28;20035;-84
2022/04/09 04:36:34;;;;;;;2.15;1.95;;;;;;;-0.88;100.00;92221.91;2111759;28;20028;-85
2022/04/09 04:37:39;;;;;;;2.47;2.28;;;;;;;-0.92;100.00;92215.88;2089549;28;20029;-82
2022/04/09 04:38:40;;;;;;;2.78;2.58;;;;;;;-0.88;100.00;92221.91;2098230;28;20485;-84
2022/04/09 04:39:41;;;;;;;2.45;2.20;;;;;;;-0.77;100.00;92233.22;2103736;28;20060;-87
2022/04/09 04:40:42;;;;;;;3.35;2.67;;;;;;;-0.89;100.00;92221.16;2095405;28;20055;-84
2022/04/09 04:41:44;;;;;;;3.22;2.88;;;;;;;-0.84;100.00;92228.69;2091640;28;20492;-81
2022/04/09 04:42:45;;;;;;;3.03;2.67;;;;;;;-0.95;100.00;92230.50;2085704;28;20028;-86
2022/04/09 04:43:51;;;;;;;4.35;2.97;;;;;;;-0.97;100.00;92224.84;2102187;28;20020;-84
2022/04/09 04:44:52;;;;;;;2.65;2.38;;;;;;;-0.81;100.00;92233.19;2100634;28;20056;-83
2022/04/09 04:45:53;;;;;;;3.13;2.75;;;;;;;-0.85;100.00;92227.19;2089579;28;20047;-86
2022/04/09 04:46:54;;;;;;;4.07;3.67;;;;;;;-0.94;100.00;92226.00;2096329;28;20119;-83
2022/04/09 04:47:55;;;;;;;4.20;3.80;;;;;;;-0.95;100.00;92227.13;2097037;28;20052;-85
2022/04/09 04:48:56;;;;;;;4.15;3.40;;;;;;;-0.90;100.00;92232.03;2097951;28;20661;-83
2022/04/09 04:50:01;;;;;;;4.50;3.35;;;;;;;-0.83;100.00;92232.09;2097634;28;20024;-82